createdAt,value
2017-11-23T00:00:26.435Z,82.01
2017-11-23T00:01:36.509Z,82.26
2017-11-23T00:02:46.041Z,82.45
2017-11-23T00:03:55.843Z,81.78
2017-11-23T00:05:05.931Z,81.78
2017-11-23T00:06:15.994Z,82.35
2017-11-23T00:07:26.056Z,81.68
2017-11-23T00:08:35.850Z,82.29
2017-11-23T00:09:45.686Z,82.35
2017-11-23T00:10:55.502Z,82.26
2017-11-23T00:12:05.047Z,82.26
2017-11-23T00:13:15.115Z,82.35
2017-11-23T00:14:24.926Z,81.97
2017-11-23T00:15:34.981Z,82.45
2017-11-23T00:16:44.785Z,82.35
2017-11-23T00:17:54.582Z,82.26
2017-11-23T00:19:04.654Z,82.45
2017-11-23T00:20:14.777Z,82.45
2017-11-23T00:21:24.641Z,82.16
2017-11-23T00:22:34.185Z,82.45
2017-11-23T00:23:43.989Z,82.26
2017-11-23T00:24:54.077Z,82.26
2017-11-23T00:26:04.159Z,82.16
2017-11-23T00:27:14.256Z,82.26
2017-11-23T00:28:24.327Z,82.45
2017-11-23T00:29:34.111Z,82.45
2017-11-23T00:30:43.921Z,82.54
2017-11-23T00:31:53.757Z,82.26
2017-11-23T00:33:03.028Z,81.68
2017-11-23T00:34:13.093Z,82.45
2017-11-23T00:35:23.177Z,82.26
2017-11-23T00:36:32.721Z,82.45
2017-11-23T00:37:42.523Z,82.35
2017-11-23T00:38:52.071Z,82.35
2017-11-23T00:40:02.646Z,81.78
2017-11-23T00:41:12.464Z,82.26
2017-11-23T00:42:35.300Z,82.26
2017-11-23T00:43:45.103Z,82.35
2017-11-23T00:44:55.188Z,82.45
2017-11-23T00:46:05.016Z,82.35
2017-11-23T00:47:14.828Z,82.26
2017-11-23T00:48:24.944Z,82.26
2017-11-23T00:49:35.111Z,82.35
2017-11-23T00:50:45.204Z,82.45
2017-11-23T00:51:55.019Z,82.16
2017-11-23T00:53:04.817Z,82.35
2017-11-23T00:54:14.628Z,82.35
2017-11-23T00:55:24.708Z,82.35
2017-11-23T00:56:34.033Z,82.26
2017-11-23T00:57:43.852Z,82.16
2017-11-23T00:58:53.929Z,82.64
2017-11-23T01:00:04.021Z,81.68
2017-11-23T01:01:13.877Z,82.26
2017-11-23T01:02:23.691Z,82.07
2017-11-23T01:03:33.758Z,82.45
2017-11-23T01:04:43.843Z,82.26
2017-11-23T01:05:53.912Z,82.26
2017-11-23T01:07:03.976Z,81.87
2017-11-23T01:08:13.979Z,82.35
2017-11-23T01:09:23.795Z,81.97
2017-11-23T01:10:33.350Z,82.16
2017-11-23T01:11:42.616Z,82.26
2017-11-23T01:12:52.446Z,82.35
2017-11-23T01:14:02.509Z,82.16
2017-11-23T01:15:12.593Z,82.21
2017-11-23T01:16:22.690Z,82.03
2017-11-23T01:17:32.763Z,82.26
2017-11-23T01:18:42.367Z,82.21
2017-11-23T01:19:52.433Z,82.16
2017-11-23T01:21:02.491Z,82.12
2017-11-23T01:22:12.561Z,82.03
2017-11-23T01:23:22.365Z,82.03
2017-11-23T01:24:31.925Z,82.03
2017-11-23T01:25:42.014Z,82.03
2017-11-23T01:26:51.556Z,81.93
2017-11-23T01:28:01.369Z,82.03
2017-11-23T01:29:11.441Z,82.03
2017-11-23T01:30:21.572Z,82.03
2017-11-23T01:31:31.650Z,82.03
2017-11-23T01:32:41.185Z,81.84
2017-11-23T01:33:51.737Z,81.93
2017-11-23T01:35:01.553Z,81.93
2017-11-23T01:36:11.682Z,81.84
2017-11-23T01:37:21.477Z,81.84
2017-11-23T01:38:31.536Z,81.93
2017-11-23T01:39:41.078Z,81.93
2017-11-23T01:40:51.140Z,81.93
2017-11-23T01:42:01.216Z,81.84
2017-11-23T01:43:11.031Z,81.74
2017-11-23T01:44:21.125Z,81.74
2017-11-23T01:45:30.934Z,81.74
2017-11-23T01:46:41.007Z,81.84
2017-11-23T01:47:51.094Z,81.65
2017-11-23T01:49:01.153Z,81.84
2017-11-23T01:50:10.791Z,81.74
2017-11-23T01:51:20.649Z,81.74
2017-11-23T01:52:30.449Z,81.55
2017-11-23T01:53:40.511Z,81.55
2017-11-23T01:54:49.770Z,81.93
2017-11-23T01:55:59.846Z,81.36
2017-11-23T01:57:09.702Z,81.84
2017-11-23T01:58:19.786Z,81.84
2017-11-23T01:59:29.336Z,81.55
2017-11-23T02:00:39.413Z,81.45
2017-11-23T02:01:49.513Z,82.03
2017-11-23T02:02:59.376Z,81.55
2017-11-23T02:04:09.470Z,81.84
2017-11-23T02:05:19.592Z,81.84
2017-11-23T02:06:29.648Z,81.93
2017-11-23T02:07:39.198Z,81.55
2017-11-23T02:08:49.009Z,81.55
2017-11-23T02:09:58.805Z,81.45
2017-11-23T02:11:08.628Z,81.55
2017-11-23T02:12:18.178Z,81.55
2017-11-23T02:13:28.002Z,81.65
2017-11-23T02:14:38.068Z,81.45
2017-11-23T02:15:48.139Z,81.45
2017-11-23T02:16:58.236Z,81.74
2017-11-23T02:18:08.291Z,81.6
2017-11-23T02:19:18.372Z,81.51
2017-11-23T02:20:28.488Z,81.6
2017-11-23T02:21:38.571Z,81.55
2017-11-23T02:22:48.107Z,81.41
2017-11-23T02:23:57.919Z,81.55
2017-11-23T02:25:07.990Z,81.6
2017-11-23T02:26:17.533Z,81.55
2017-11-23T02:27:27.612Z,81.55
2017-11-23T02:28:37.417Z,81.7
2017-11-23T02:29:47.234Z,81.7
2017-11-23T02:30:57.358Z,81.41
2017-11-23T02:32:07.177Z,81.51
2017-11-23T02:33:17.258Z,81.23
2017-11-23T02:34:27.351Z,81.51
2017-11-23T02:35:37.150Z,81.6
2017-11-23T02:36:46.966Z,81.51
2017-11-23T02:37:56.508Z,81.7
2017-11-23T02:39:06.608Z,81.6
2017-11-23T02:40:16.438Z,81.6
2017-11-23T02:41:26.533Z,81.51
2017-11-23T02:42:36.658Z,81.51
2017-11-23T02:43:46.756Z,81.51
2017-11-23T02:44:56.555Z,81.6
2017-11-23T02:46:06.375Z,81.32
2017-11-23T02:47:16.443Z,81.7
2017-11-23T02:48:26.621Z,81.51
2017-11-23T02:49:36.438Z,81.51
2017-11-23T02:50:46.512Z,81.6
2017-11-23T02:51:56.045Z,81.32
2017-11-23T02:53:05.888Z,81.6
2017-11-23T02:54:15.714Z,81.32
2017-11-23T02:55:25.515Z,81.6
2017-11-23T02:56:35.593Z,81.51
2017-11-23T02:57:45.409Z,81.7
2017-11-23T02:58:55.225Z,81.6
2017-11-23T03:00:05.050Z,81.51
2017-11-23T03:01:15.114Z,81.6
2017-11-23T03:02:24.916Z,81.98
2017-11-23T03:33:59.067Z,77.73
2017-11-23T03:35:08.859Z,77.69
2017-11-23T03:36:18.652Z,78.73
2017-11-23T03:37:28.445Z,79.49
2017-11-23T03:38:39.755Z,80.67
2017-11-23T03:39:49.862Z,80.95
2017-11-23T03:40:59.919Z,81.43
2017-11-23T03:42:09.709Z,82.09
2017-11-23T03:43:19.796Z,82.09
2017-11-23T03:44:29.600Z,81.62
2017-11-23T03:45:39.657Z,81.85
2017-11-23T03:46:49.198Z,82.51
2017-11-23T03:47:59.280Z,82.42
2017-11-23T03:49:09.095Z,81.94
2017-11-23T03:50:19.181Z,82.23
2017-11-23T03:51:28.985Z,82.27
2017-11-23T03:52:39.060Z,81.79
2017-11-23T03:53:48.342Z,81.79
2017-11-23T03:54:59.204Z,81.98
2017-11-23T03:56:09.300Z,81.88
2017-11-23T03:57:19.179Z,82.08
2017-11-23T03:58:29.257Z,82.17
2017-11-23T03:59:39.334Z,81.74
2017-11-23T04:00:49.412Z,82.21
2017-11-23T04:01:59.962Z,82.12
2017-11-23T04:03:10.039Z,81.93
2017-11-23T04:04:19.831Z,81.74
2017-11-23T04:05:29.661Z,82.12
2017-11-23T04:06:39.468Z,82.12
2017-11-23T04:07:49.535Z,82.12
2017-11-23T04:08:59.610Z,81.93
2017-11-23T04:10:09.410Z,82.12
2017-11-23T04:11:19.221Z,81.93
2017-11-23T04:12:29.026Z,82.21
2017-11-23T04:13:38.580Z,82.21
2017-11-23T04:14:48.664Z,82.4
2017-11-23T04:15:58.202Z,82.16
2017-11-23T04:17:08.268Z,82.16
2017-11-23T04:18:18.354Z,81.65
2017-11-23T04:19:29.265Z,82.12
2017-11-23T04:20:39.112Z,82.16
2017-11-23T04:21:48.925Z,81.97
2017-11-23T04:22:58.753Z,82.16
2017-11-23T04:24:08.811Z,82.35
2017-11-23T04:25:18.366Z,82.16
2017-11-23T04:26:28.501Z,82.07
2017-11-23T04:27:38.579Z,81.97
2017-11-23T04:28:48.659Z,82.07
2017-11-23T04:29:58.192Z,82.07
2017-11-23T04:31:08.275Z,82.16
2017-11-23T04:32:18.084Z,82.16
2017-11-23T04:33:27.878Z,82.07
2017-11-23T04:34:37.954Z,82.07
2017-11-23T04:35:48.026Z,82.16
2017-11-23T04:36:58.089Z,82.16
2017-11-23T04:38:07.890Z,81.97
2017-11-23T04:39:17.955Z,82.16
2017-11-23T04:40:28.025Z,81.97
2017-11-23T04:41:38.092Z,82.16
2017-11-23T04:42:47.906Z,81.97
2017-11-23T04:43:57.988Z,82.16
2017-11-23T04:45:08.064Z,82.35
2017-11-23T04:46:17.875Z,82.26
2017-11-23T04:47:27.948Z,82.35
2017-11-23T04:48:37.741Z,82.35
2017-11-23T04:49:47.827Z,82.35
2017-11-23T04:50:57.923Z,82.31
2017-11-23T04:52:07.446Z,82.07
2017-11-23T04:53:17.523Z,82.07
2017-11-23T04:54:27.331Z,82.26
2017-11-23T04:55:37.490Z,82.35
2017-11-23T04:56:47.553Z,82.12
2017-11-23T04:57:57.620Z,82.03
2017-11-23T04:59:07.420Z,82.03
2017-11-23T05:00:17.487Z,82.03
2017-11-23T05:01:27.610Z,81.93
2017-11-23T05:02:37.421Z,82.35
2017-11-23T05:03:47.243Z,82.4
2017-11-23T05:04:57.317Z,82.31
2017-11-23T05:06:07.127Z,81.65
2017-11-23T05:07:16.675Z,81.65
2017-11-23T05:08:26.219Z,82.26
2017-11-23T05:09:36.027Z,82.21
2017-11-23T05:10:46.112Z,82.07
2017-11-23T05:11:56.181Z,81.97
2017-11-23T05:13:05.782Z,82.07
2017-11-23T05:14:15.885Z,82.16
2017-11-23T05:15:25.967Z,82.16
2017-11-23T05:16:35.772Z,82.26
2017-11-23T05:17:45.323Z,82.16
2017-11-23T05:18:55.393Z,82.07
2017-11-23T05:20:04.918Z,82.16
2017-11-23T05:21:14.996Z,82.16
2017-11-23T05:22:24.807Z,82.16
2017-11-23T05:23:34.358Z,82.31
2017-11-23T05:24:44.433Z,82.26
2017-11-23T05:25:54.511Z,82.26
2017-11-23T05:27:04.321Z,82.35
2017-11-23T05:28:13.861Z,82.26
2017-11-23T05:29:23.932Z,82.35
2017-11-23T05:30:34.014Z,82.45
2017-11-23T05:31:43.836Z,82.26
2017-11-23T05:32:53.105Z,82.45
2017-11-23T05:34:02.922Z,81.97
2017-11-23T05:35:13.045Z,82.07
2017-11-23T05:36:22.894Z,82.16
2017-11-23T05:37:32.439Z,81.97
2017-11-23T05:38:42.237Z,81.97
2017-11-23T05:39:52.050Z,82.26
2017-11-23T05:41:02.126Z,82.26
2017-11-23T05:42:11.934Z,81.78
2017-11-23T05:43:21.731Z,81.97
2017-11-23T05:44:31.272Z,81.78
2017-11-23T05:45:41.356Z,81.97
2017-11-23T05:46:51.168Z,81.97
2017-11-23T05:48:01.021Z,81.97
2017-11-23T05:49:10.862Z,82.16
2017-11-23T05:50:20.929Z,82.07
2017-11-23T05:51:30.489Z,81.87
2017-11-23T05:52:40.298Z,81.97
2017-11-23T05:53:50.097Z,81.97
2017-11-23T05:54:59.925Z,82.35
2017-11-23T05:56:09.999Z,82.07
2017-11-23T05:57:19.283Z,82.07
2017-11-23T05:58:30.066Z,82.35
2017-11-23T05:59:39.866Z,81.97
2017-11-23T06:00:49.689Z,81.97
2017-11-23T06:01:59.225Z,81.78
2017-11-23T06:03:09.032Z,81.87
2017-11-23T06:04:18.845Z,82.07
2017-11-23T06:05:28.698Z,82.07
2017-11-23T06:06:38.237Z,81.87
2017-11-23T06:07:48.315Z,82.07
2017-11-23T06:08:58.415Z,82.07
2017-11-23T06:10:08.223Z,81.87
2017-11-23T06:11:18.055Z,82.07
2017-11-23T06:12:28.116Z,81.97
2017-11-23T06:13:37.922Z,81.97
2017-11-23T06:14:47.735Z,81.97
2017-11-23T06:15:57.532Z,82.16
2017-11-23T06:17:07.645Z,81.97
2017-11-23T06:18:17.711Z,81.97
2017-11-23T06:19:27.258Z,81.97
2017-11-23T06:20:37.643Z,82.07
2017-11-23T06:21:47.745Z,82.07
2017-11-23T06:22:57.856Z,82.45
2017-11-23T06:24:07.408Z,82.35
2017-11-23T06:25:17.485Z,82.26
2017-11-23T06:26:27.564Z,82.35
2017-11-23T06:27:37.654Z,82.16
2017-11-23T06:28:47.737Z,82.07
2017-11-23T06:29:57.545Z,82.07
2017-11-23T06:31:07.356Z,82.07
2017-11-23T06:32:16.907Z,82.16
2017-11-23T06:33:27.018Z,81.97
2017-11-23T06:34:37.250Z,82.1
2017-11-23T06:35:47.318Z,82.29
2017-11-23T06:36:57.133Z,82.01
2017-11-23T06:38:06.672Z,82.2
2017-11-23T06:39:16.762Z,82.29
2017-11-23T06:40:26.835Z,82.39
2017-11-23T06:41:36.671Z,82.49
2017-11-23T06:42:46.725Z,81.92
2017-11-23T06:43:56.534Z,82.2
2017-11-23T06:45:06.347Z,82.2
2017-11-23T06:46:16.231Z,82.39
2017-11-23T06:47:26.329Z,82.29
2017-11-23T06:48:35.875Z,82.49
2017-11-23T06:49:45.938Z,82.39
2017-11-23T06:50:56.025Z,82.39
2017-11-23T06:52:05.886Z,82.39
2017-11-23T06:53:15.704Z,82.1
2017-11-23T06:54:25.505Z,82.2
2017-11-23T06:55:35.323Z,82.1
2017-11-23T06:56:45.413Z,81.63
2017-11-23T06:57:55.549Z,82.01
2017-11-23T06:59:05.623Z,82.29
2017-11-23T07:00:15.708Z,82.1
2017-11-23T07:01:25.537Z,81.82
2017-11-23T07:02:35.604Z,82.1
2017-11-23T07:03:45.443Z,82.1
2017-11-23T07:04:55.523Z,81.82
2017-11-23T07:06:05.353Z,81.73
2017-11-23T07:07:15.414Z,81.82
2017-11-23T07:08:25.221Z,81.82
2017-11-23T07:09:34.767Z,81.82
2017-11-23T07:10:44.839Z,81.82
2017-11-23T07:11:54.640Z,82.01
2017-11-23T07:13:04.731Z,82.01
2017-11-23T07:14:14.308Z,81.92
2017-11-23T07:15:24.450Z,81.73
2017-11-23T07:16:33.988Z,81.73
2017-11-23T07:17:44.064Z,81.48
2017-11-23T07:18:53.907Z,81.54
2017-11-23T07:20:03.709Z,81.48
2017-11-23T07:21:13.514Z,81.48
2017-11-23T07:22:23.343Z,81.38
2017-11-23T07:23:33.419Z,81.48
2017-11-23T07:24:42.967Z,81.96
2017-11-23T07:25:52.807Z,81.86
2017-11-23T07:27:02.621Z,81.48
2017-11-23T07:28:12.703Z,81.96
2017-11-23T07:29:22.521Z,82.15
2017-11-23T07:30:32.584Z,81.96
2017-11-23T07:31:42.130Z,81.2
2017-11-23T07:32:52.235Z,81.48
2017-11-23T07:34:02.317Z,81.96
2017-11-23T07:35:12.743Z,81.86
2017-11-23T07:36:22.558Z,81.73
2017-11-23T07:37:32.664Z,82.1
2017-11-23T07:38:42.451Z,81.77
2017-11-23T07:39:51.733Z,82.01
2017-11-23T07:41:01.840Z,81.73
2017-11-23T07:42:11.396Z,82.1
2017-11-23T07:43:21.482Z,82.2
2017-11-23T07:44:31.610Z,82.29
2017-11-23T07:45:41.421Z,82.2
2017-11-23T07:46:50.698Z,82.1
2017-11-23T07:48:00.760Z,82.2
2017-11-23T07:49:10.859Z,81.54
2017-11-23T07:50:21.003Z,82.29
2017-11-23T07:51:31.077Z,82.1
2017-11-23T07:52:40.873Z,82.01
2017-11-23T07:53:50.709Z,82.01
2017-11-23T07:55:00.795Z,81.86
2017-11-23T07:56:10.660Z,81.48
2017-11-23T07:57:20.195Z,81.73
2017-11-23T07:58:30.263Z,81.67
2017-11-23T07:59:40.332Z,81.48
2017-11-23T08:00:50.831Z,81.54
2017-11-23T08:02:00.903Z,81.67
2017-11-23T08:03:10.995Z,81.67
2017-11-23T08:04:21.106Z,81.48
2017-11-23T08:05:30.389Z,81.96
2017-11-23T08:06:40.209Z,81.86
2017-11-23T08:07:51.339Z,81.38
2017-11-23T08:09:01.425Z,81.58
2017-11-23T08:10:11.234Z,81.67
2017-11-23T08:11:21.318Z,81.58
2017-11-23T08:12:30.866Z,81.58
2017-11-23T08:13:40.984Z,81.77
2017-11-23T08:14:50.272Z,81.48
2017-11-23T08:16:00.349Z,81.38
2017-11-23T08:17:10.422Z,81.58
2017-11-23T08:18:20.506Z,81.58
2017-11-23T08:19:30.648Z,81.58
2017-11-23T08:20:40.463Z,81.96
2017-11-23T08:21:50.542Z,81.77
2017-11-23T08:23:00.070Z,81.29
2017-11-23T08:24:10.155Z,80.91
2017-11-23T08:25:19.756Z,80.91
2017-11-23T08:26:29.554Z,81.43
2017-11-23T08:27:39.750Z,81.52
2017-11-23T08:28:49.579Z,81.62
2017-11-23T08:29:59.377Z,80.95
2017-11-23T08:31:09.286Z,81.43
2017-11-23T08:32:19.105Z,81.43
2017-11-23T08:33:28.909Z,81.24
2017-11-23T08:34:38.716Z,80.95
2017-11-23T08:35:48.794Z,81.81
2017-11-23T08:36:58.344Z,81.43
2017-11-23T08:38:07.615Z,81.43
2017-11-23T08:39:17.421Z,81.33
2017-11-23T08:40:26.957Z,81.33
2017-11-23T08:41:37.017Z,81.24
2017-11-23T08:42:46.911Z,81.24
2017-11-23T08:43:57.035Z,81.33
2017-11-23T08:45:06.861Z,81.52
2017-11-23T08:46:16.984Z,81.71
2017-11-23T08:47:26.829Z,80.95
2017-11-23T08:48:36.898Z,81.81
2017-11-23T08:49:46.974Z,81.9
2017-11-23T08:50:56.799Z,81.62
2017-11-23T08:52:06.607Z,81.81
2017-11-23T08:53:16.685Z,81.81
2017-11-23T08:54:26.759Z,81.86
2017-11-23T08:55:36.863Z,82.05
2017-11-23T08:56:46.943Z,82.15
2017-11-23T08:57:57.130Z,81.67
2017-11-23T08:59:07.981Z,82.15
2017-11-23T09:00:17.787Z,82.05
2017-11-23T09:01:27.871Z,82.24
2017-11-23T09:02:37.446Z,81.96
2017-11-23T09:03:47.554Z,82.15
2017-11-23T09:04:57.407Z,82.05
2017-11-23T09:06:07.270Z,82.05
2017-11-23T09:07:16.815Z,81.86
2017-11-23T09:08:26.903Z,81.86
2017-11-23T09:09:36.995Z,82.15
2017-11-23T09:10:47.118Z,81.67
2017-11-23T09:11:57.226Z,81.77
2017-11-23T09:13:07.048Z,81.67
2017-11-23T09:14:17.132Z,81.67
2017-11-23T09:15:28.124Z,81.67
2017-11-23T09:16:37.946Z,81.67
2017-11-23T09:17:48.096Z,81.48
2017-11-23T09:18:57.648Z,81.58
2017-11-23T09:20:07.459Z,81.96
2017-11-23T09:21:17.276Z,81.58
2017-11-23T09:22:27.108Z,81.77
2017-11-23T09:23:37.035Z,81.77
2017-11-23T09:24:47.119Z,81.77
2017-11-23T09:25:56.959Z,81.81
2017-11-23T09:27:06.802Z,82
2017-11-23T09:28:16.883Z,81.81
2017-11-23T09:29:27.032Z,81.67
2017-11-23T09:30:36.865Z,81.71
2017-11-23T09:31:46.682Z,81.81
2017-11-23T09:32:56.784Z,81.81
2017-11-23T09:34:06.877Z,82
2017-11-23T09:35:16.972Z,81.81
2017-11-23T09:36:27.104Z,81.71
2017-11-23T09:37:36.915Z,82
2017-11-23T09:38:46.738Z,81.81
2017-11-23T09:39:56.810Z,81.9
2017-11-23T09:41:06.976Z,81.43
2017-11-23T09:42:16.824Z,81.62
2017-11-23T09:43:26.647Z,81.52
2017-11-23T09:44:36.735Z,81.62
2017-11-23T09:45:46.284Z,81.9
2017-11-23T09:46:56.168Z,81.62
2017-11-23T09:48:06.273Z,81.81
2017-11-23T09:49:16.372Z,81.43
2017-11-23T09:50:26.176Z,81.43
2017-11-23T09:51:35.991Z,81.81
2017-11-23T09:52:46.135Z,81.9
2017-11-23T09:53:56.240Z,82.05
2017-11-23T09:55:06.339Z,82.05
2017-11-23T09:56:16.475Z,82.05
2017-11-23T09:57:26.318Z,81.77
2017-11-23T09:58:36.192Z,81.77
2017-11-23T09:59:45.999Z,81.77
2017-11-23T10:00:56.087Z,81.86
2017-11-23T10:02:06.176Z,81.67
2017-11-23T10:03:16.257Z,81.77
2017-11-23T10:04:26.438Z,81.86
2017-11-23T10:05:36.514Z,81.77
2017-11-23T10:06:46.597Z,81.38
2017-11-23T10:07:56.408Z,81.48
2017-11-23T10:09:06.497Z,81.77
2017-11-23T10:10:16.360Z,81.77
2017-11-23T10:11:26.472Z,81.52
2017-11-23T10:12:36.055Z,81.81
2017-11-23T10:13:45.884Z,81.48
2017-11-23T10:14:55.704Z,81.77
2017-11-23T10:16:05.785Z,81.77
2017-11-23T10:17:15.902Z,81.96
2017-11-23T10:18:26.012Z,81.52
2017-11-23T10:19:35.558Z,81.81
2017-11-23T10:20:44.832Z,81.62
2017-11-23T10:21:54.925Z,81.71
2017-11-23T10:23:04.480Z,82.34
2017-11-23T10:24:14.301Z,82.34
2017-11-23T10:25:23.856Z,82.05
2017-11-23T10:26:33.920Z,82.05
2017-11-23T10:27:43.776Z,81.86
2017-11-23T10:28:53.856Z,81.9
2017-11-23T10:30:03.944Z,81.71
2017-11-23T10:31:14.070Z,81.71
2017-11-23T10:32:24.164Z,82
2017-11-23T10:33:33.991Z,81.52
2017-11-23T10:34:43.800Z,81.71
2017-11-23T10:35:53.626Z,81.71
2017-11-23T10:37:03.714Z,81.62
2017-11-23T10:38:14.544Z,81.62
2017-11-23T10:39:24.702Z,81.9
2017-11-23T10:40:34.803Z,81.9
2017-11-23T10:41:43.818Z,81.52
2017-11-23T10:42:53.630Z,81.71
2017-11-23T10:44:03.460Z,81.9
2017-11-23T10:45:13.613Z,81.81
2017-11-23T10:46:23.718Z,81.81
2017-11-23T10:47:33.550Z,81.71
2017-11-23T10:48:43.375Z,81.52
2017-11-23T10:49:53.493Z,81.43
2017-11-23T10:51:03.632Z,81.71
2017-11-23T10:52:13.716Z,81.81
2017-11-23T10:53:23.798Z,81.71
2017-11-23T10:54:33.887Z,81.71
2017-11-23T10:55:43.979Z,81.62
2017-11-23T10:56:53.561Z,81.81
2017-11-23T10:58:03.116Z,81.81
2017-11-23T10:59:13.204Z,81.71
2017-11-23T11:00:23.293Z,81.81
2017-11-23T11:01:33.102Z,81.71
2017-11-23T11:02:43.182Z,81.71
2017-11-23T11:03:53.292Z,81.81
2017-11-23T11:05:02.845Z,81.81
2017-11-23T11:06:12.924Z,81.85
2017-11-23T11:07:22.493Z,81.76
2017-11-23T11:08:32.334Z,81.52
2017-11-23T11:09:42.454Z,81.81
2017-11-23T11:10:52.527Z,82.04
2017-11-23T11:12:02.619Z,82.09
2017-11-23T11:13:12.441Z,81.95
2017-11-23T11:14:22.566Z,81.66
2017-11-23T11:15:32.391Z,81.85
2017-11-23T11:16:42.484Z,82.04
2017-11-23T11:17:52.589Z,81.76
2017-11-23T11:19:02.423Z,82.14
2017-11-23T11:20:12.288Z,81.56
2017-11-23T11:21:22.134Z,81.95
2017-11-23T11:22:31.680Z,81.66
2017-11-23T11:23:41.533Z,81.85
2017-11-23T11:24:51.671Z,81.66
2017-11-23T11:26:01.740Z,81.76
2017-11-23T11:27:11.844Z,82.14
2017-11-23T11:28:21.907Z,82.32
2017-11-23T11:29:31.732Z,82.32
2017-11-23T11:30:41.829Z,82.23
2017-11-23T11:31:51.914Z,82.32
2017-11-23T11:33:01.755Z,82.32
2017-11-23T11:34:11.589Z,82.42
2017-11-23T11:35:21.427Z,82.42
2017-11-23T11:36:31.527Z,82.42
2017-11-23T11:37:41.600Z,82.32
2017-11-23T11:38:51.454Z,82.32
2017-11-23T11:40:01.292Z,82.23
2017-11-23T11:41:11.389Z,82.14
2017-11-23T11:42:21.536Z,82.04
2017-11-23T11:43:31.418Z,82.23
2017-11-23T11:44:41.257Z,82.14
2017-11-23T11:45:51.332Z,82.04
2017-11-23T11:47:01.421Z,81.76
2017-11-23T11:48:11.263Z,82.32
2017-11-23T11:49:21.390Z,82.42
2017-11-23T11:50:31.219Z,82.51
2017-11-23T11:51:41.061Z,82.51
2017-11-23T11:52:50.888Z,82.42
2017-11-23T11:54:00.968Z,82.23
2017-11-23T11:55:11.114Z,82.23
2017-11-23T11:56:21.205Z,82.14
2017-11-23T11:57:31.010Z,82.14
2017-11-23T11:58:41.092Z,82.42
2017-11-23T11:59:50.901Z,81.76
2017-11-23T12:01:00.504Z,82.61
2017-11-23T12:02:10.328Z,82.23
2017-11-23T12:03:20.141Z,82.14
2017-11-23T12:04:29.960Z,82.04
2017-11-23T12:05:40.053Z,82.04
2017-11-23T12:06:50.192Z,82.14
2017-11-23T12:08:00.273Z,82.18
2017-11-23T12:09:10.106Z,82.14
2017-11-23T12:10:19.662Z,82.18
2017-11-23T12:11:29.744Z,82.18
2017-11-23T12:12:39.885Z,82.08
2017-11-23T12:13:49.965Z,82.18
2017-11-23T12:14:59.806Z,82.56
2017-11-23T12:16:09.929Z,82.18
2017-11-23T12:17:19.764Z,82.18
2017-11-23T12:18:29.592Z,81.89
2017-11-23T12:19:39.689Z,82.27
2017-11-23T12:20:49.513Z,82.18
2017-11-23T12:21:59.324Z,82.18
2017-11-23T12:23:09.452Z,82.18
2017-11-23T12:24:19.280Z,82.27
2017-11-23T12:25:29.362Z,82.27
2017-11-23T12:26:39.180Z,82.27
2017-11-23T12:27:49.260Z,82.27
2017-11-23T12:28:59.099Z,82.27
2017-11-23T12:30:08.965Z,82.27
2017-11-23T12:31:19.120Z,82.08
2017-11-23T12:32:29.214Z,82.46
2017-11-23T12:33:39.315Z,82.27
2017-11-23T12:34:49.416Z,82.08
2017-11-23T12:35:59.565Z,82.65
2017-11-23T12:37:09.389Z,82.56
2017-11-23T12:38:19.472Z,82.41
2017-11-23T12:39:29.573Z,82.31
2017-11-23T12:40:39.688Z,82.12
2017-11-23T12:41:49.832Z,82.03
2017-11-23T12:42:59.373Z,82.03
2017-11-23T12:44:09.449Z,81.84
2017-11-23T12:45:19.278Z,81.93
2017-11-23T12:46:29.114Z,82.21
2017-11-23T12:47:39.008Z,82.12
2017-11-23T12:48:48.814Z,82.69
2017-11-23T12:49:59.956Z,82.5
2017-11-23T12:51:10.050Z,82.41
2017-11-23T12:52:19.875Z,82.5
2017-11-23T12:53:29.755Z,82.03
2017-11-23T12:54:39.865Z,82.21
2017-11-23T12:55:49.941Z,82.12
2017-11-23T12:56:59.757Z,82.21
2017-11-23T12:58:09.829Z,82.31
2017-11-23T12:59:19.404Z,82.5
2017-11-23T13:00:29.508Z,82.5
2017-11-23T13:01:39.065Z,82.21
2017-11-23T13:02:49.156Z,81.93
2017-11-23T13:03:59.261Z,82.31
2017-11-23T13:05:09.398Z,82.21
2017-11-23T13:06:19.268Z,82.21
2017-11-23T13:07:29.367Z,82.31
2017-11-23T13:08:38.925Z,82.41
2017-11-23T13:09:49.009Z,82.31
2017-11-23T13:10:59.196Z,82.6
2017-11-23T13:12:09.277Z,82.54
2017-11-23T13:13:19.140Z,82.45
2017-11-23T13:14:29.225Z,82.21
2017-11-23T13:15:39.301Z,82.64
2017-11-23T13:16:49.129Z,82.73
2017-11-23T13:17:59.212Z,81.88
2017-11-23T13:19:08.776Z,82.54
2017-11-23T13:20:18.859Z,82.54
2017-11-23T13:21:28.945Z,82.26
2017-11-23T13:22:38.804Z,82.26
2017-11-23T13:23:48.373Z,82.26
2017-11-23T13:24:58.447Z,81.97
2017-11-23T13:26:08.260Z,82.35
2017-11-23T13:27:18.345Z,81.78
2017-11-23T13:28:29.719Z,82.17
2017-11-23T13:29:39.595Z,81.88
2017-11-23T13:30:49.673Z,81.88
2017-11-23T13:31:59.493Z,82.01
2017-11-23T13:33:09.574Z,82.01
2017-11-23T13:34:19.641Z,82.3
2017-11-23T13:35:29.567Z,81.92
2017-11-23T13:36:39.678Z,82.01
2017-11-23T13:37:49.771Z,81.82
2017-11-23T13:38:59.869Z,82.17
2017-11-23T13:40:09.176Z,81.82
2017-11-23T13:41:19.053Z,81.88
2017-11-23T13:42:28.344Z,82.07
2017-11-23T13:43:38.150Z,82.35
2017-11-23T13:44:47.706Z,82.64
2017-11-23T13:45:57.541Z,82.35
2017-11-23T13:47:07.697Z,82.45
2017-11-23T13:48:17.784Z,82.35
2017-11-23T13:49:27.897Z,82.35
2017-11-23T13:50:37.713Z,82.45
2017-11-23T13:51:47.842Z,81.88
2017-11-23T13:52:57.435Z,82.07
2017-11-23T13:54:07.531Z,82.07
2017-11-23T13:55:17.617Z,82.45
2017-11-23T13:56:27.737Z,82.45
2017-11-23T13:57:37.549Z,82.17
2017-11-23T13:58:47.694Z,82.6
2017-11-23T13:59:57.797Z,82.54
2017-11-23T14:01:07.614Z,82.26
2017-11-23T14:02:17.466Z,82.26
2017-11-23T14:03:27.546Z,82.35
2017-11-23T14:04:38.226Z,82.17
2017-11-23T14:05:48.062Z,82.41
2017-11-23T14:06:58.166Z,82.12
2017-11-23T14:08:07.969Z,82.41
2017-11-23T14:09:18.077Z,82.5
2017-11-23T14:10:27.970Z,82.26
2017-11-23T14:11:37.514Z,82.5
2017-11-23T14:12:47.348Z,82.12
2017-11-23T14:13:56.930Z,82.12
2017-11-23T14:15:07.035Z,82.69
2017-11-23T14:16:17.159Z,83.07
2017-11-23T14:17:27.004Z,82.79
2017-11-23T14:18:36.840Z,82.69
2017-11-23T14:19:46.932Z,82.41
2017-11-23T14:20:57.048Z,82.98
2017-11-23T14:22:06.927Z,83.07
2017-11-23T14:23:17.026Z,83.03
2017-11-23T14:24:27.134Z,83.22
2017-11-23T14:25:36.972Z,83.03
2017-11-23T14:26:47.035Z,82.84
2017-11-23T14:27:57.145Z,82.84
2017-11-23T14:29:07.236Z,82.84
2017-11-23T14:30:17.061Z,83.51
2017-11-23T14:31:26.890Z,82.84
2017-11-23T14:32:36.705Z,83.13
2017-11-23T14:33:46.512Z,83.03
2017-11-23T14:34:56.593Z,83.13
2017-11-23T14:36:06.163Z,83.03
2017-11-23T14:37:16.004Z,83.22
2017-11-23T14:38:26.090Z,82.84
2017-11-23T14:39:35.975Z,83.13
2017-11-23T14:40:46.109Z,83.32
2017-11-23T14:41:56.202Z,83.32
2017-11-23T14:43:06.310Z,82.65
2017-11-23T14:44:16.418Z,82.56
2017-11-23T14:45:26.610Z,83.03
2017-11-23T14:46:36.457Z,82.65
2017-11-23T14:47:46.539Z,82.46
2017-11-23T14:48:56.345Z,82.46
2017-11-23T14:50:06.175Z,82.65
2017-11-23T14:51:16.319Z,82.56
2017-11-23T14:52:26.400Z,83.47
2017-11-23T14:53:36.221Z,82.99
2017-11-23T14:54:46.314Z,83.18
2017-11-23T14:55:56.135Z,82.99
2017-11-23T14:57:06.026Z,82.99
2017-11-23T14:58:16.133Z,83.09
2017-11-23T14:59:26.214Z,83.47
2017-11-23T15:00:37.580Z,83.37
2017-11-23T15:01:47.688Z,83.28
2017-11-23T15:02:57.802Z,83.47
2017-11-23T15:04:07.971Z,83.23
2017-11-23T15:05:18.060Z,83.23
2017-11-23T15:06:27.912Z,82.95
2017-11-23T15:07:37.726Z,83.42
2017-11-23T15:08:47.953Z,83.23
2017-11-23T15:09:58.050Z,83.33
2017-11-23T15:11:08.156Z,83.33
2017-11-23T15:12:18.245Z,82.86
2017-11-23T15:13:28.358Z,83.04
2017-11-23T15:14:38.521Z,82.76
2017-11-23T15:15:48.394Z,83.14
2017-11-23T15:16:58.515Z,83.33
2017-11-23T15:18:08.638Z,83.33
2017-11-23T15:19:18.726Z,82.48
2017-11-23T15:20:28.606Z,82.76
2017-11-23T15:21:38.436Z,82.38
2017-11-23T15:22:48.533Z,82.38
2017-11-23T15:23:58.372Z,82.57
2017-11-23T15:25:08.184Z,82.38
2017-11-23T15:26:18.292Z,82.38
2017-11-23T15:27:28.371Z,83.23
2017-11-23T15:28:38.468Z,82.48
2017-11-23T15:29:48.304Z,82.48
2017-11-23T15:30:58.402Z,82.48
2017-11-23T15:32:08.622Z,83.1
2017-11-23T15:33:17.910Z,83.19